sensor_id;sensor_type;location;lat;lon;timestamp;P1;durP1;ratioP1;P2;durP2;ratioP2
5622;SDS011;2833;50.432;10.706;2023-06-26T00:01:24;8.87;;;6.63;;
5622;SDS011;2833;50.432;10.706;2023-06-26T00:03:49;8.17;;;6.60;;
5622;SDS011;2833;50.432;10.706;2023-06-26T00:06:14;7.33;;;6.50;;
5622;SDS011;2833;50.432;10.706;2023-06-26T00:08:40;7.90;;;6.80;;
5622;SDS011;2833;50.432;10.706;2023-06-26T00:11:05;8.90;;;7.00;;
5622;SDS011;2833;50.432;10.706;2023-06-26T00:13:30;11.80;;;6.90;;
5622;SDS011;2833;50.432;10.706;2023-06-26T00:15:55;8.43;;;7.23;;
5622;SDS011;2833;50.432;10.706;2023-06-26T00:18:21;10.80;;;7.17;;
5622;SDS011;2833;50.432;10.706;2023-06-26T00:20:46;8.70;;;7.30;;
5622;SDS011;2833;50.432;10.706;2023-06-26T00:23:11;8.37;;;6.90;;
5622;SDS011;2833;50.432;10.706;2023-06-26T00:25:38;7.93;;;6.70;;
5622;SDS011;2833;50.432;10.706;2023-06-26T00:28:03;11.73;;;7.90;;
5622;SDS011;2833;50.432;10.706;2023-06-26T00:30:28;12.60;;;7.67;;
5622;SDS011;2833;50.432;10.706;2023-06-26T00:32:53;10.00;;;7.60;;
5622;SDS011;2833;50.432;10.706;2023-06-26T00:35:18;10.20;;;7.47;;
5622;SDS011;2833;50.432;10.706;2023-06-26T00:37:44;9.33;;;7.33;;
5622;SDS011;2833;50.432;10.706;2023-06-26T00:40:09;9.90;;;7.90;;
5622;SDS011;2833;50.432;10.706;2023-06-26T00:42:34;9.67;;;7.80;;
5622;SDS011;2833;50.432;10.706;2023-06-26T00:44:59;9.37;;;7.77;;
5622;SDS011;2833;50.432;10.706;2023-06-26T00:47:25;9.43;;;7.17;;
5622;SDS011;2833;50.432;10.706;2023-06-26T00:49:50;7.80;;;7.00;;
5622;SDS011;2833;50.432;10.706;2023-06-26T00:52:16;7.57;;;6.70;;
5622;SDS011;2833;50.432;10.706;2023-06-26T00:54:41;9.07;;;7.20;;
5622;SDS011;2833;50.432;10.706;2023-06-26T00:57:07;11.60;;;7.30;;
5622;SDS011;2833;50.432;10.706;2023-06-26T00:59:32;8.17;;;7.23;;
5622;SDS011;2833;50.432;10.706;2023-06-26T01:01:57;9.80;;;7.80;;
5622;SDS011;2833;50.432;10.706;2023-06-26T01:04:22;8.77;;;7.80;;
5622;SDS011;2833;50.432;10.706;2023-06-26T01:06:52;9.10;;;7.30;;
5622;SDS011;2833;50.432;10.706;2023-06-26T01:09:18;8.07;;;7.23;;
5622;SDS011;2833;50.432;10.706;2023-06-26T01:11:44;9.03;;;7.40;;
5622;SDS011;2833;50.432;10.706;2023-06-26T01:14:09;8.73;;;7.43;;
5622;SDS011;2833;50.432;10.706;2023-06-26T01:16:34;8.93;;;7.30;;
5622;SDS011;2833;50.432;10.706;2023-06-26T01:19:00;9.70;;;7.97;;
5622;SDS011;2833;50.432;10.706;2023-06-26T01:21:25;9.53;;;7.80;;
5622;SDS011;2833;50.432;10.706;2023-06-26T01:26:29;8.87;;;7.63;;
5622;SDS011;2833;50.432;10.706;2023-06-26T01:28:56;8.30;;;7.27;;
5622;SDS011;2833;50.432;10.706;2023-06-26T01:31:21;8.47;;;7.40;;
5622;SDS011;2833;50.432;10.706;2023-06-26T01:33:47;10.33;;;8.10;;
5622;SDS011;2833;50.432;10.706;2023-06-26T01:36:12;11.57;;;7.47;;
5622;SDS011;2833;50.432;10.706;2023-06-26T01:38:37;8.67;;;7.17;;
5622;SDS011;2833;50.432;10.706;2023-06-26T01:41:03;10.13;;;6.47;;
5622;SDS011;2833;50.432;10.706;2023-06-26T01:45:54;7.10;;;6.40;;
5622;SDS011;2833;50.432;10.706;2023-06-26T01:48:23;8.40;;;7.60;;
5622;SDS011;2833;50.432;10.706;2023-06-26T01:50:51;9.97;;;7.60;;
5622;SDS011;2833;50.432;10.706;2023-06-26T01:53:17;8.87;;;7.67;;
5622;SDS011;2833;50.432;10.706;2023-06-26T01:55:57;9.17;;;7.60;;
5622;SDS011;2833;50.432;10.706;2023-06-26T01:58:25;8.00;;;7.20;;
5622;SDS011;2833;50.432;10.706;2023-06-26T02:00:51;9.70;;;7.67;;
5622;SDS011;2833;50.432;10.706;2023-06-26T02:03:16;12.07;;;7.17;;
5622;SDS011;2833;50.432;10.706;2023-06-26T02:05:41;9.17;;;7.63;;
5622;SDS011;2833;50.432;10.706;2023-06-26T02:08:07;9.07;;;7.27;;
5622;SDS011;2833;50.432;10.706;2023-06-26T02:10:33;9.70;;;7.03;;
5622;SDS011;2833;50.432;10.706;2023-06-26T02:12:59;12.33;;;6.63;;
5622;SDS011;2833;50.432;10.706;2023-06-26T02:15:24;10.40;;;7.40;;
5622;SDS011;2833;50.432;10.706;2023-06-26T02:17:49;11.60;;;7.53;;
5622;SDS011;2833;50.432;10.706;2023-06-26T02:20:14;10.80;;;7.50;;
5622;SDS011;2833;50.432;10.706;2023-06-26T02:22:40;8.00;;;7.20;;
5622;SDS011;2833;50.432;10.706;2023-06-26T02:25:06;10.40;;;7.10;;
5622;SDS011;2833;50.432;10.706;2023-06-26T02:27:31;9.93;;;7.53;;
5622;SDS011;2833;50.432;10.706;2023-06-26T02:29:56;8.03;;;7.00;;
5622;SDS011;2833;50.432;10.706;2023-06-26T02:32:21;10.03;;;6.90;;
5622;SDS011;2833;50.432;10.706;2023-06-26T02:34:46;9.80;;;6.23;;
5622;SDS011;2833;50.432;10.706;2023-06-26T02:37:11;10.10;;;7.20;;
5622;SDS011;2833;50.432;10.706;2023-06-26T02:39:37;9.47;;;7.40;;
5622;SDS011;2833;50.432;10.706;2023-06-26T02:42:02;7.93;;;7.13;;
5622;SDS011;2833;50.432;10.706;2023-06-26T02:44:27;9.07;;;7.70;;
5622;SDS011;2833;50.432;10.706;2023-06-26T02:46:52;10.93;;;8.27;;
5622;SDS011;2833;50.432;10.706;2023-06-26T02:49:18;9.23;;;7.10;;
5622;SDS011;2833;50.432;10.706;2023-06-26T02:51:43;8.50;;;7.00;;
5622;SDS011;2833;50.432;10.706;2023-06-26T02:54:08;8.73;;;6.73;;
5622;SDS011;2833;50.432;10.706;2023-06-26T02:56:33;8.03;;;7.23;;
5622;SDS011;2833;50.432;10.706;2023-06-26T02:58:58;8.17;;;7.37;;
5622;SDS011;2833;50.432;10.706;2023-06-26T03:01:24;8.10;;;7.10;;
5622;SDS011;2833;50.432;10.706;2023-06-26T03:03:49;7.80;;;6.80;;
5622;SDS011;2833;50.432;10.706;2023-06-26T03:06:14;8.00;;;7.07;;
5622;SDS011;2833;50.432;10.706;2023-06-26T03:08:40;9.53;;;7.07;;
5622;SDS011;2833;50.432;10.706;2023-06-26T03:11:06;8.07;;;6.53;;
5622;SDS011;2833;50.432;10.706;2023-06-26T03:13:32;9.10;;;7.50;;
5622;SDS011;2833;50.432;10.706;2023-06-26T03:15:57;7.70;;;6.80;;
5622;SDS011;2833;50.432;10.706;2023-06-26T03:18:22;7.20;;;6.50;;
5622;SDS011;2833;50.432;10.706;2023-06-26T03:20:47;10.70;;;6.87;;
5622;SDS011;2833;50.432;10.706;2023-06-26T03:23:13;8.00;;;6.80;;
5622;SDS011;2833;50.432;10.706;2023-06-26T03:25:38;13.37;;;6.87;;
5622;SDS011;2833;50.432;10.706;2023-06-26T03:28:03;8.93;;;7.20;;
5622;SDS011;2833;50.432;10.706;2023-06-26T03:30:28;8.97;;;7.17;;
5622;SDS011;2833;50.432;10.706;2023-06-26T03:32:54;7.87;;;7.07;;
5622;SDS011;2833;50.432;10.706;2023-06-26T03:35:19;8.03;;;6.57;;
5622;SDS011;2833;50.432;10.706;2023-06-26T03:37:44;8.07;;;6.90;;
5622;SDS011;2833;50.432;10.706;2023-06-26T03:40:09;9.47;;;6.90;;
5622;SDS011;2833;50.432;10.706;2023-06-26T03:42:35;13.73;;;9.80;;
5622;SDS011;2833;50.432;10.706;2023-06-26T03:45:00;9.13;;;7.63;;
5622;SDS011;2833;50.432;10.706;2023-06-26T03:47:25;10.07;;;7.47;;
5622;SDS011;2833;50.432;10.706;2023-06-26T03:49:50;8.20;;;6.90;;
5622;SDS011;2833;50.432;10.706;2023-06-26T03:52:15;7.67;;;6.80;;
5622;SDS011;2833;50.432;10.706;2023-06-26T03:54:40;8.57;;;6.87;;
5622;SDS011;2833;50.432;10.706;2023-06-26T03:57:06;8.30;;;7.33;;
5622;SDS011;2833;50.432;10.706;2023-06-26T03:59:31;7.93;;;6.63;;
5622;SDS011;2833;50.432;10.706;2023-06-26T04:01:57;8.70;;;6.40;;
5622;SDS011;2833;50.432;10.706;2023-06-26T04:04:22;7.97;;;6.87;;
5622;SDS011;2833;50.432;10.706;2023-06-26T04:06:47;8.00;;;6.53;;
5622;SDS011;2833;50.432;10.706;2023-06-26T04:09:12;9.57;;;7.30;;
5622;SDS011;2833;50.432;10.706;2023-06-26T04:11:37;7.47;;;6.30;;
5622;SDS011;2833;50.432;10.706;2023-06-26T04:14:02;7.80;;;6.80;;
5622;SDS011;2833;50.432;10.706;2023-06-26T04:16:28;8.23;;;6.77;;
5622;SDS011;2833;50.432;10.706;2023-06-26T04:18:53;8.83;;;7.10;;
5622;SDS011;2833;50.432;10.706;2023-06-26T04:21:20;9.60;;;7.33;;
5622;SDS011;2833;50.432;10.706;2023-06-26T04:23:45;7.90;;;6.83;;
5622;SDS011;2833;50.432;10.706;2023-06-26T04:26:12;9.10;;;7.17;;
5622;SDS011;2833;50.432;10.706;2023-06-26T04:28:39;9.50;;;7.13;;
5622;SDS011;2833;50.432;10.706;2023-06-26T04:31:04;9.13;;;7.83;;
5622;SDS011;2833;50.432;10.706;2023-06-26T04:33:30;8.23;;;7.17;;
5622;SDS011;2833;50.432;10.706;2023-06-26T04:35:55;9.60;;;7.47;;
5622;SDS011;2833;50.432;10.706;2023-06-26T04:38:20;7.97;;;6.93;;
5622;SDS011;2833;50.432;10.706;2023-06-26T04:40:46;12.00;;;8.20;;
5622;SDS011;2833;50.432;10.706;2023-06-26T04:43:11;8.57;;;7.40;;
5622;SDS011;2833;50.432;10.706;2023-06-26T04:45:37;9.13;;;7.50;;
5622;SDS011;2833;50.432;10.706;2023-06-26T04:48:02;11.37;;;8.20;;
5622;SDS011;2833;50.432;10.706;2023-06-26T04:50:27;9.17;;;7.30;;
5622;SDS011;2833;50.432;10.706;2023-06-26T04:52:54;10.80;;;8.03;;
5622;SDS011;2833;50.432;10.706;2023-06-26T04:55:19;10.03;;;8.20;;
5622;SDS011;2833;50.432;10.706;2023-06-26T04:57:46;9.93;;;7.83;;
5622;SDS011;2833;50.432;10.706;2023-06-26T05:00:11;10.77;;;7.43;;
5622;SDS011;2833;50.432;10.706;2023-06-26T05:02:37;9.73;;;8.40;;
5622;SDS011;2833;50.432;10.706;2023-06-26T05:05:02;10.57;;;8.30;;
5622;SDS011;2833;50.432;10.706;2023-06-26T05:07:27;14.37;;;8.40;;
5622;SDS011;2833;50.432;10.706;2023-06-26T05:09:52;10.77;;;8.77;;
5622;SDS011;2833;50.432;10.706;2023-06-26T05:12:18;9.57;;;7.60;;
5622;SDS011;2833;50.432;10.706;2023-06-26T05:14:43;9.43;;;8.03;;
5622;SDS011;2833;50.432;10.706;2023-06-26T05:17:08;12.67;;;9.00;;
5622;SDS011;2833;50.432;10.706;2023-06-26T05:19:33;12.70;;;9.90;;
5622;SDS011;2833;50.432;10.706;2023-06-26T05:21:59;12.03;;;9.03;;
5622;SDS011;2833;50.432;10.706;2023-06-26T05:24:26;10.40;;;8.33;;
5622;SDS011;2833;50.432;10.706;2023-06-26T05:26:52;12.47;;;8.20;;
5622;SDS011;2833;50.432;10.706;2023-06-26T05:29:17;16.73;;;8.00;;
5622;SDS011;2833;50.432;10.706;2023-06-26T05:31:42;8.70;;;7.43;;
5622;SDS011;2833;50.432;10.706;2023-06-26T05:34:10;9.60;;;7.77;;
5622;SDS011;2833;50.432;10.706;2023-06-26T05:36:35;11.60;;;8.97;;
5622;SDS011;2833;50.432;10.706;2023-06-26T05:39:01;9.77;;;7.80;;
5622;SDS011;2833;50.432;10.706;2023-06-26T05:41:26;11.10;;;8.53;;
5622;SDS011;2833;50.432;10.706;2023-06-26T05:43:51;10.27;;;8.50;;
5622;SDS011;2833;50.432;10.706;2023-06-26T05:46:19;11.77;;;8.73;;
5622;SDS011;2833;50.432;10.706;2023-06-26T05:48:44;14.43;;;9.43;;
5622;SDS011;2833;50.432;10.706;2023-06-26T05:51:09;22.40;;;9.13;;
5622;SDS011;2833;50.432;10.706;2023-06-26T05:53:35;11.33;;;8.77;;
5622;SDS011;2833;50.432;10.706;2023-06-26T05:56:00;11.80;;;8.30;;
5622;SDS011;2833;50.432;10.706;2023-06-26T05:58:25;10.30;;;7.50;;
5622;SDS011;2833;50.432;10.706;2023-06-26T06:00:52;12.60;;;8.33;;
5622;SDS011;2833;50.432;10.706;2023-06-26T06:03:17;10.00;;;8.23;;
5622;SDS011;2833;50.432;10.706;2023-06-26T06:05:42;10.63;;;8.10;;
5622;SDS011;2833;50.432;10.706;2023-06-26T06:08:07;12.00;;;7.20;;
5622;SDS011;2833;50.432;10.706;2023-06-26T06:10:32;8.73;;;7.03;;
5622;SDS011;2833;50.432;10.706;2023-06-26T06:12:58;9.10;;;7.20;;
5622;SDS011;2833;50.432;10.706;2023-06-26T06:15:23;11.40;;;8.30;;
5622;SDS011;2833;50.432;10.706;2023-06-26T06:17:48;10.77;;;8.03;;
5622;SDS011;2833;50.432;10.706;2023-06-26T06:20:13;12.93;;;8.50;;
5622;SDS011;2833;50.432;10.706;2023-06-26T06:22:38;10.10;;;7.30;;
5622;SDS011;2833;50.432;10.706;2023-06-26T06:25:04;10.80;;;7.50;;
5622;SDS011;2833;50.432;10.706;2023-06-26T06:27:29;9.10;;;7.70;;
5622;SDS011;2833;50.432;10.706;2023-06-26T06:29:55;14.60;;;7.57;;
5622;SDS011;2833;50.432;10.706;2023-06-26T06:32:21;9.83;;;7.40;;
5622;SDS011;2833;50.432;10.706;2023-06-26T06:34:46;8.90;;;7.20;;
5622;SDS011;2833;50.432;10.706;2023-06-26T06:37:11;10.30;;;7.60;;
5622;SDS011;2833;50.432;10.706;2023-06-26T06:39:36;8.10;;;6.90;;
5622;SDS011;2833;50.432;10.706;2023-06-26T06:42:01;9.17;;;6.80;;
5622;SDS011;2833;50.432;10.706;2023-06-26T06:44:26;13.60;;;7.30;;
5622;SDS011;2833;50.432;10.706;2023-06-26T06:46:52;8.60;;;7.20;;
5622;SDS011;2833;50.432;10.706;2023-06-26T06:49:17;18.37;;;11.97;;
5622;SDS011;2833;50.432;10.706;2023-06-26T06:51:42;12.97;;;8.50;;
5622;SDS011;2833;50.432;10.706;2023-06-26T06:54:07;17.80;;;11.13;;
5622;SDS011;2833;50.432;10.706;2023-06-26T06:56:33;8.67;;;7.20;;
5622;SDS011;2833;50.432;10.706;2023-06-26T06:58:58;8.77;;;7.40;;
5622;SDS011;2833;50.432;10.706;2023-06-26T07:01:24;8.57;;;6.63;;
5622;SDS011;2833;50.432;10.706;2023-06-26T07:03:49;7.20;;;5.87;;
5622;SDS011;2833;50.432;10.706;2023-06-26T07:06:14;9.20;;;6.97;;
5622;SDS011;2833;50.432;10.706;2023-06-26T07:08:39;8.77;;;7.13;;
5622;SDS011;2833;50.432;10.706;2023-06-26T07:11:04;8.67;;;7.27;;
5622;SDS011;2833;50.432;10.706;2023-06-26T07:13:29;8.20;;;6.70;;
5622;SDS011;2833;50.432;10.706;2023-06-26T07:15:55;9.10;;;7.40;;
5622;SDS011;2833;50.432;10.706;2023-06-26T07:18:20;8.00;;;7.00;;
5622;SDS011;2833;50.432;10.706;2023-06-26T07:20:45;7.87;;;6.83;;
5622;SDS011;2833;50.432;10.706;2023-06-26T07:23:10;8.07;;;7.00;;
5622;SDS011;2833;50.432;10.706;2023-06-26T07:25:35;8.60;;;6.53;;
5622;SDS011;2833;50.432;10.706;2023-06-26T07:28:01;10.20;;;6.70;;
5622;SDS011;2833;50.432;10.706;2023-06-26T07:30:26;7.37;;;6.23;;
5622;SDS011;2833;50.432;10.706;2023-06-26T07:32:51;7.37;;;6.37;;
5622;SDS011;2833;50.432;10.706;2023-06-26T07:35:16;9.07;;;6.87;;
5622;SDS011;2833;50.432;10.706;2023-06-26T07:37:42;7.60;;;6.80;;
5622;SDS011;2833;50.432;10.706;2023-06-26T07:40:07;9.23;;;7.40;;
5622;SDS011;2833;50.432;10.706;2023-06-26T07:42:32;8.63;;;6.37;;
5622;SDS011;2833;50.432;10.706;2023-06-26T07:44:58;9.30;;;6.50;;
5622;SDS011;2833;50.432;10.706;2023-06-26T07:47:23;9.60;;;6.73;;
5622;SDS011;2833;50.432;10.706;2023-06-26T07:49:48;10.87;;;6.87;;
5622;SDS011;2833;50.432;10.706;2023-06-26T07:52:14;12.70;;;7.33;;
5622;SDS011;2833;50.432;10.706;2023-06-26T07:54:40;10.27;;;7.07;;
5622;SDS011;2833;50.432;10.706;2023-06-26T07:57:05;10.27;;;6.57;;
5622;SDS011;2833;50.432;10.706;2023-06-26T07:59:33;7.23;;;6.17;;
5622;SDS011;2833;50.432;10.706;2023-06-26T08:01:59;8.70;;;7.13;;
5622;SDS011;2833;50.432;10.706;2023-06-26T08:04:25;11.63;;;7.70;;
5622;SDS011;2833;50.432;10.706;2023-06-26T08:06:55;8.77;;;6.50;;
5622;SDS011;2833;50.432;10.706;2023-06-26T08:09:22;10.40;;;7.10;;
5622;SDS011;2833;50.432;10.706;2023-06-26T08:11:47;9.60;;;7.27;;
5622;SDS011;2833;50.432;10.706;2023-06-26T08:14:13;11.03;;;6.90;;
5622;SDS011;2833;50.432;10.706;2023-06-26T08:16:39;8.40;;;6.87;;
5622;SDS011;2833;50.432;10.706;2023-06-26T08:19:04;7.33;;;6.30;;
5622;SDS011;2833;50.432;10.706;2023-06-26T08:21:29;11.20;;;6.90;;
5622;SDS011;2833;50.432;10.706;2023-06-26T08:23:54;8.47;;;5.83;;
5622;SDS011;2833;50.432;10.706;2023-06-26T08:26:19;8.77;;;6.67;;
5622;SDS011;2833;50.432;10.706;2023-06-26T08:28:44;7.23;;;6.07;;
5622;SDS011;2833;50.432;10.706;2023-06-26T08:31:10;9.27;;;6.70;;
5622;SDS011;2833;50.432;10.706;2023-06-26T08:33:35;10.93;;;6.50;;
5622;SDS011;2833;50.432;10.706;2023-06-26T08:36:00;9.20;;;7.57;;
5622;SDS011;2833;50.432;10.706;2023-06-26T08:38:25;9.50;;;6.43;;
5622;SDS011;2833;50.432;10.706;2023-06-26T08:40:50;8.93;;;6.90;;
5622;SDS011;2833;50.432;10.706;2023-06-26T08:43:16;7.80;;;5.93;;
5622;SDS011;2833;50.432;10.706;2023-06-26T08:45:41;7.87;;;5.60;;
5622;SDS011;2833;50.432;10.706;2023-06-26T08:48:09;7.50;;;6.43;;
5622;SDS011;2833;50.432;10.706;2023-06-26T08:50:35;13.37;;;6.23;;
5622;SDS011;2833;50.432;10.706;2023-06-26T08:53:14;6.43;;;5.50;;
5622;SDS011;2833;50.432;10.706;2023-06-26T08:55:41;9.10;;;6.47;;
5622;SDS011;2833;50.432;10.706;2023-06-26T08:58:06;8.20;;;6.33;;
5622;SDS011;2833;50.432;10.706;2023-06-26T09:00:31;6.53;;;5.87;;
5622;SDS011;2833;50.432;10.706;2023-06-26T09:02:57;8.13;;;6.03;;
5622;SDS011;2833;50.432;10.706;2023-06-26T09:05:23;8.10;;;6.17;;
5622;SDS011;2833;50.432;10.706;2023-06-26T09:07:48;10.47;;;6.87;;
5622;SDS011;2833;50.432;10.706;2023-06-26T09:10:13;8.07;;;5.90;;
5622;SDS011;2833;50.432;10.706;2023-06-26T09:12:38;8.47;;;6.30;;
5622;SDS011;2833;50.432;10.706;2023-06-26T09:15:05;10.63;;;6.47;;
5622;SDS011;2833;50.432;10.706;2023-06-26T09:17:30;10.70;;;6.00;;
5622;SDS011;2833;50.432;10.706;2023-06-26T09:19:56;9.63;;;6.67;;
5622;SDS011;2833;50.432;10.706;2023-06-26T09:22:21;8.30;;;5.70;;
5622;SDS011;2833;50.432;10.706;2023-06-26T09:24:47;6.80;;;5.60;;
5622;SDS011;2833;50.432;10.706;2023-06-26T09:27:12;11.63;;;6.73;;
5622;SDS011;2833;50.432;10.706;2023-06-26T09:29:38;8.73;;;6.87;;
5622;SDS011;2833;50.432;10.706;2023-06-26T09:32:03;10.57;;;7.23;;
5622;SDS011;2833;50.432;10.706;2023-06-26T09:34:32;11.83;;;6.93;;
5622;SDS011;2833;50.432;10.706;2023-06-26T09:36:58;8.70;;;6.80;;
5622;SDS011;2833;50.432;10.706;2023-06-26T09:39:23;8.33;;;6.37;;
5622;SDS011;2833;50.432;10.706;2023-06-26T09:41:48;7.63;;;6.07;;
5622;SDS011;2833;50.432;10.706;2023-06-26T09:44:14;10.70;;;6.70;;
5622;SDS011;2833;50.432;10.706;2023-06-26T09:46:40;8.47;;;6.20;;
5622;SDS011;2833;50.432;10.706;2023-06-26T09:51:30;8.90;;;6.40;;
5622;SDS011;2833;50.432;10.706;2023-06-26T09:53:56;8.17;;;6.07;;
5622;SDS011;2833;50.432;10.706;2023-06-26T09:56:21;7.57;;;6.30;;
5622;SDS011;2833;50.432;10.706;2023-06-26T09:58:47;8.33;;;6.13;;
5622;SDS011;2833;50.432;10.706;2023-06-26T10:01:12;9.33;;;6.40;;
5622;SDS011;2833;50.432;10.706;2023-06-26T10:03:37;7.20;;;5.37;;
5622;SDS011;2833;50.432;10.706;2023-06-26T10:06:02;7.47;;;5.80;;
5622;SDS011;2833;50.432;10.706;2023-06-26T10:08:29;6.77;;;5.50;;
5622;SDS011;2833;50.432;10.706;2023-06-26T10:10:55;9.57;;;6.07;;
5622;SDS011;2833;50.432;10.706;2023-06-26T10:13:21;8.60;;;6.73;;
5622;SDS011;2833;50.432;10.706;2023-06-26T10:15:47;7.57;;;5.47;;
5622;SDS011;2833;50.432;10.706;2023-06-26T10:18:14;9.00;;;6.20;;
5622;SDS011;2833;50.432;10.706;2023-06-26T10:20:40;9.77;;;5.87;;
5622;SDS011;2833;50.432;10.706;2023-06-26T10:23:07;7.20;;;5.80;;
5622;SDS011;2833;50.432;10.706;2023-06-26T10:25:34;8.50;;;6.60;;
5622;SDS011;2833;50.432;10.706;2023-06-26T10:28:01;6.70;;;5.37;;
5622;SDS011;2833;50.432;10.706;2023-06-26T10:30:28;6.43;;;5.57;;
5622;SDS011;2833;50.432;10.706;2023-06-26T10:32:54;6.93;;;5.67;;
5622;SDS011;2833;50.432;10.706;2023-06-26T10:35:19;7.43;;;5.37;;
5622;SDS011;2833;50.432;10.706;2023-06-26T10:37:46;6.90;;;5.57;;
5622;SDS011;2833;50.432;10.706;2023-06-26T10:40:12;7.03;;;5.40;;
5622;SDS011;2833;50.432;10.706;2023-06-26T10:42:37;6.57;;;5.10;;
5622;SDS011;2833;50.432;10.706;2023-06-26T10:45:10;8.70;;;5.70;;
5622;SDS011;2833;50.432;10.706;2023-06-26T10:47:39;6.90;;;4.93;;
5622;SDS011;2833;50.432;10.706;2023-06-26T10:52:46;7.80;;;5.73;;
5622;SDS011;2833;50.432;10.706;2023-06-26T10:55:31;7.47;;;5.90;;
5622;SDS011;2833;50.432;10.706;2023-06-26T10:57:56;8.00;;;5.67;;
5622;SDS011;2833;50.432;10.706;2023-06-26T11:00:22;7.33;;;5.60;;
5622;SDS011;2833;50.432;10.706;2023-06-26T11:02:47;6.37;;;5.60;;
5622;SDS011;2833;50.432;10.706;2023-06-26T11:05:13;6.77;;;5.10;;
5622;SDS011;2833;50.432;10.706;2023-06-26T11:10:28;6.77;;;4.97;;
5622;SDS011;2833;50.432;10.706;2023-06-26T11:12:53;9.10;;;5.70;;
5622;SDS011;2833;50.432;10.706;2023-06-26T11:15:19;10.57;;;5.80;;
5622;SDS011;2833;50.432;10.706;2023-06-26T11:17:44;9.57;;;5.67;;
5622;SDS011;2833;50.432;10.706;2023-06-26T11:20:14;7.50;;;6.10;;
5622;SDS011;2833;50.432;10.706;2023-06-26T11:22:41;7.77;;;5.63;;
5622;SDS011;2833;50.432;10.706;2023-06-26T11:25:07;7.90;;;6.13;;
5622;SDS011;2833;50.432;10.706;2023-06-26T11:27:39;11.50;;;6.20;;
5622;SDS011;2833;50.432;10.706;2023-06-26T11:30:05;8.40;;;6.10;;
5622;SDS011;2833;50.432;10.706;2023-06-26T11:32:30;8.70;;;5.53;;
5622;SDS011;2833;50.432;10.706;2023-06-26T11:34:57;7.40;;;6.17;;
5622;SDS011;2833;50.432;10.706;2023-06-26T11:37:23;6.90;;;5.70;;
5622;SDS011;2833;50.432;10.706;2023-06-26T11:39:49;7.90;;;6.53;;
5622;SDS011;2833;50.432;10.706;2023-06-26T11:42:14;7.37;;;6.00;;
5622;SDS011;2833;50.432;10.706;2023-06-26T11:44:40;8.10;;;5.97;;
5622;SDS011;2833;50.432;10.706;2023-06-26T11:47:06;6.97;;;5.60;;
5622;SDS011;2833;50.432;10.706;2023-06-26T11:49:32;7.90;;;5.80;;
5622;SDS011;2833;50.432;10.706;2023-06-26T11:51:57;10.43;;;5.60;;
5622;SDS011;2833;50.432;10.706;2023-06-26T11:54:23;7.20;;;5.97;;
5622;SDS011;2833;50.432;10.706;2023-06-26T11:56:52;6.20;;;5.27;;
5622;SDS011;2833;50.432;10.706;2023-06-26T11:59:17;7.10;;;5.47;;
5622;SDS011;2833;50.432;10.706;2023-06-26T12:01:43;6.30;;;5.30;;
5622;SDS011;2833;50.432;10.706;2023-06-26T12:04:12;7.13;;;6.13;;
5622;SDS011;2833;50.432;10.706;2023-06-26T12:06:39;7.30;;;5.67;;
5622;SDS011;2833;50.432;10.706;2023-06-26T12:09:05;7.70;;;6.07;;
5622;SDS011;2833;50.432;10.706;2023-06-26T12:11:32;7.07;;;5.63;;
5622;SDS011;2833;50.432;10.706;2023-06-26T12:13:59;10.10;;;5.83;;
5622;SDS011;2833;50.432;10.706;2023-06-26T12:16:25;6.83;;;5.27;;
5622;SDS011;2833;50.432;10.706;2023-06-26T12:18:50;7.83;;;5.30;;
5622;SDS011;2833;50.432;10.706;2023-06-26T12:23:59;8.40;;;5.60;;
5622;SDS011;2833;50.432;10.706;2023-06-26T12:26:25;9.70;;;5.67;;
5622;SDS011;2833;50.432;10.706;2023-06-26T12:28:51;7.13;;;6.13;;
5622;SDS011;2833;50.432;10.706;2023-06-26T12:31:16;8.50;;;6.50;;
5622;SDS011;2833;50.432;10.706;2023-06-26T12:33:44;7.43;;;5.63;;
5622;SDS011;2833;50.432;10.706;2023-06-26T12:36:10;8.20;;;5.70;;
5622;SDS011;2833;50.432;10.706;2023-06-26T12:38:35;9.13;;;6.40;;
5622;SDS011;2833;50.432;10.706;2023-06-26T12:41:01;7.10;;;5.57;;
5622;SDS011;2833;50.432;10.706;2023-06-26T12:43:26;8.70;;;6.93;;
5622;SDS011;2833;50.432;10.706;2023-06-26T12:45:54;7.13;;;5.90;;
5622;SDS011;2833;50.432;10.706;2023-06-26T12:48:20;7.47;;;6.40;;
5622;SDS011;2833;50.432;10.706;2023-06-26T12:50:45;7.77;;;6.17;;
5622;SDS011;2833;50.432;10.706;2023-06-26T12:53:11;8.07;;;6.30;;
5622;SDS011;2833;50.432;10.706;2023-06-26T12:55:36;9.07;;;6.77;;
5622;SDS011;2833;50.432;10.706;2023-06-26T12:58:01;7.87;;;6.23;;
5622;SDS011;2833;50.432;10.706;2023-06-26T13:00:27;8.87;;;7.27;;
5622;SDS011;2833;50.432;10.706;2023-06-26T13:02:52;7.80;;;5.80;;
5622;SDS011;2833;50.432;10.706;2023-06-26T13:05:17;8.20;;;7.13;;
5622;SDS011;2833;50.432;10.706;2023-06-26T13:07:42;7.33;;;6.17;;
5622;SDS011;2833;50.432;10.706;2023-06-26T13:10:07;10.17;;;5.77;;
5622;SDS011;2833;50.432;10.706;2023-06-26T13:12:33;10.90;;;6.77;;
5622;SDS011;2833;50.432;10.706;2023-06-26T13:14:58;8.03;;;6.60;;
5622;SDS011;2833;50.432;10.706;2023-06-26T13:17:24;8.00;;;6.30;;
5622;SDS011;2833;50.432;10.706;2023-06-26T13:19:49;7.67;;;6.87;;
5622;SDS011;2833;50.432;10.706;2023-06-26T13:22:14;15.50;;;7.90;;
5622;SDS011;2833;50.432;10.706;2023-06-26T13:24:39;10.67;;;7.60;;
5622;SDS011;2833;50.432;10.706;2023-06-26T13:27:04;8.87;;;6.87;;
5622;SDS011;2833;50.432;10.706;2023-06-26T13:29:31;21.53;;;7.90;;
5622;SDS011;2833;50.432;10.706;2023-06-26T13:31:56;8.07;;;6.40;;
5622;SDS011;2833;50.432;10.706;2023-06-26T13:34:22;10.10;;;7.40;;
5622;SDS011;2833;50.432;10.706;2023-06-26T13:36:48;8.43;;;6.87;;
5622;SDS011;2833;50.432;10.706;2023-06-26T13:39:13;7.00;;;5.93;;
5622;SDS011;2833;50.432;10.706;2023-06-26T13:41:38;11.23;;;7.53;;
5622;SDS011;2833;50.432;10.706;2023-06-26T13:44:03;9.93;;;6.40;;
5622;SDS011;2833;50.432;10.706;2023-06-26T13:46:29;9.00;;;7.47;;
5622;SDS011;2833;50.432;10.706;2023-06-26T13:48:54;11.47;;;8.07;;
5622;SDS011;2833;50.432;10.706;2023-06-26T13:51:19;8.60;;;6.70;;
5622;SDS011;2833;50.432;10.706;2023-06-26T13:53:44;8.97;;;6.40;;
5622;SDS011;2833;50.432;10.706;2023-06-26T13:56:09;11.50;;;8.30;;
5622;SDS011;2833;50.432;10.706;2023-06-26T13:58:35;9.20;;;8.20;;
5622;SDS011;2833;50.432;10.706;2023-06-26T14:01:01;10.07;;;7.40;;
5622;SDS011;2833;50.432;10.706;2023-06-26T14:03:26;8.73;;;7.27;;
5622;SDS011;2833;50.432;10.706;2023-06-26T14:05:51;8.80;;;7.17;;
5622;SDS011;2833;50.432;10.706;2023-06-26T14:08:16;9.67;;;7.10;;
5622;SDS011;2833;50.432;10.706;2023-06-26T14:10:42;10.63;;;8.73;;
5622;SDS011;2833;50.432;10.706;2023-06-26T14:13:07;11.80;;;9.50;;
5622;SDS011;2833;50.432;10.706;2023-06-26T14:15:33;9.50;;;7.10;;
5622;SDS011;2833;50.432;10.706;2023-06-26T14:17:59;13.00;;;9.37;;
5622;SDS011;2833;50.432;10.706;2023-06-26T14:20:24;10.77;;;7.10;;
5622;SDS011;2833;50.432;10.706;2023-06-26T14:22:49;11.00;;;8.73;;
5622;SDS011;2833;50.432;10.706;2023-06-26T14:25:15;10.27;;;7.80;;
5622;SDS011;2833;50.432;10.706;2023-06-26T14:27:41;14.33;;;8.30;;
5622;SDS011;2833;50.432;10.706;2023-06-26T14:30:06;13.07;;;8.20;;
5622;SDS011;2833;50.432;10.706;2023-06-26T14:32:32;12.17;;;9.17;;
5622;SDS011;2833;50.432;10.706;2023-06-26T14:34:57;11.40;;;8.70;;
5622;SDS011;2833;50.432;10.706;2023-06-26T14:37:23;12.07;;;9.60;;
5622;SDS011;2833;50.432;10.706;2023-06-26T14:39:49;11.70;;;9.80;;
5622;SDS011;2833;50.432;10.706;2023-06-26T14:42:14;11.27;;;8.43;;
5622;SDS011;2833;50.432;10.706;2023-06-26T14:44:39;9.23;;;7.10;;
5622;SDS011;2833;50.432;10.706;2023-06-26T14:47:04;11.63;;;7.97;;
5622;SDS011;2833;50.432;10.706;2023-06-26T14:49:30;9.80;;;8.30;;
5622;SDS011;2833;50.432;10.706;2023-06-26T14:51:55;8.63;;;7.10;;
5622;SDS011;2833;50.432;10.706;2023-06-26T14:54:20;11.77;;;8.10;;
5622;SDS011;2833;50.432;10.706;2023-06-26T14:56:46;10.93;;;8.23;;
5622;SDS011;2833;50.432;10.706;2023-06-26T14:59:11;11.30;;;8.67;;
5622;SDS011;2833;50.432;10.706;2023-06-26T15:01:37;12.60;;;7.67;;
5622;SDS011;2833;50.432;10.706;2023-06-26T15:04:02;9.30;;;8.10;;